sensor_id;sensor_type;location;lat;lon;timestamp;P1;durP1;ratioP1;P2;durP2;ratioP2
62711;SDS011;48772;55.586;37.730;2023-04-24T00:00:19;19.08;;;8.63;;
62711;SDS011;48772;55.586;37.730;2023-04-24T00:02:45;15.13;;;7.80;;
62711;SDS011;48772;55.586;37.730;2023-04-24T00:05:12;19.85;;;8.20;;
62711;SDS011;48772;55.586;37.730;2023-04-24T00:07:40;18.27;;;8.13;;
62711;SDS011;48772;55.586;37.730;2023-04-24T00:10:07;19.58;;;7.70;;
62711;SDS011;48772;55.586;37.730;2023-04-24T00:12:33;21.52;;;8.57;;
62711;SDS011;48772;55.586;37.730;2023-04-24T00:14:59;17.02;;;7.88;;
62711;SDS011;48772;55.586;37.730;2023-04-24T00:17:25;22.92;;;8.65;;
62711;SDS011;48772;55.586;37.730;2023-04-24T00:19:50;15.27;;;7.78;;
62711;SDS011;48772;55.586;37.730;2023-04-24T00:22:16;12.50;;;6.72;;
62711;SDS011;48772;55.586;37.730;2023-04-24T00:24:43;20.23;;;7.25;;
62711;SDS011;48772;55.586;37.730;2023-04-24T00:27:08;11.95;;;6.85;;
62711;SDS011;48772;55.586;37.730;2023-04-24T00:29:34;14.85;;;7.03;;
62711;SDS011;48772;55.586;37.730;2023-04-24T00:32:00;21.02;;;7.00;;
62711;SDS011;48772;55.586;37.730;2023-04-24T00:34:26;18.75;;;7.45;;
62711;SDS011;48772;55.586;37.730;2023-04-24T00:36:52;14.73;;;7.47;;
62711;SDS011;48772;55.586;37.730;2023-04-24T00:39:18;23.48;;;8.00;;
62711;SDS011;48772;55.586;37.730;2023-04-24T00:41:45;13.50;;;6.93;;
62711;SDS011;48772;55.586;37.730;2023-04-24T00:44:11;16.50;;;7.78;;
62711;SDS011;48772;55.586;37.730;2023-04-24T00:46:37;16.13;;;7.53;;
62711;SDS011;48772;55.586;37.730;2023-04-24T00:49:04;17.92;;;7.20;;
62711;SDS011;48772;55.586;37.730;2023-04-24T00:51:31;20.55;;;7.35;;
62711;SDS011;48772;55.586;37.730;2023-04-24T00:53:58;15.02;;;7.28;;
62711;SDS011;48772;55.586;37.730;2023-04-24T00:56:25;17.58;;;8.10;;
62711;SDS011;48772;55.586;37.730;2023-04-24T00:58:51;16.95;;;7.60;;
62711;SDS011;48772;55.586;37.730;2023-04-24T01:01:21;12.50;;;7.65;;
62711;SDS011;48772;55.586;37.730;2023-04-24T01:03:49;16.33;;;7.47;;
62711;SDS011;48772;55.586;37.730;2023-04-24T01:06:16;15.93;;;7.90;;
62711;SDS011;48772;55.586;37.730;2023-04-24T01:08:45;19.00;;;8.02;;
62711;SDS011;48772;55.586;37.730;2023-04-24T01:11:12;13.48;;;8.20;;
62711;SDS011;48772;55.586;37.730;2023-04-24T01:13:37;18.70;;;8.27;;
62711;SDS011;48772;55.586;37.730;2023-04-24T01:16:03;15.73;;;8.25;;
62711;SDS011;48772;55.586;37.730;2023-04-24T01:18:29;14.65;;;8.70;;
62711;SDS011;48772;55.586;37.730;2023-04-24T01:20:58;18.17;;;9.23;;
62711;SDS011;48772;55.586;37.730;2023-04-24T01:23:30;20.25;;;9.20;;
62711;SDS011;48772;55.586;37.730;2023-04-24T01:25:56;18.33;;;10.73;;
62711;SDS011;48772;55.586;37.730;2023-04-24T01:28:25;18.58;;;10.50;;
62711;SDS011;48772;55.586;37.730;2023-04-24T01:30:52;19.10;;;9.85;;
62711;SDS011;48772;55.586;37.730;2023-04-24T01:33:22;20.08;;;9.82;;
62711;SDS011;48772;55.586;37.730;2023-04-24T01:35:49;13.95;;;9.07;;
62711;SDS011;48772;55.586;37.730;2023-04-24T01:38:15;20.10;;;9.40;;
62711;SDS011;48772;55.586;37.730;2023-04-24T01:40:41;14.75;;;9.13;;
62711;SDS011;48772;55.586;37.730;2023-04-24T01:43:07;20.45;;;9.52;;
62711;SDS011;48772;55.586;37.730;2023-04-24T01:45:33;14.18;;;9.10;;
62711;SDS011;48772;55.586;37.730;2023-04-24T01:48:00;24.40;;;9.73;;
62711;SDS011;48772;55.586;37.730;2023-04-24T01:50:26;23.40;;;10.50;;
62711;SDS011;48772;55.586;37.730;2023-04-24T01:52:52;23.98;;;10.57;;
62711;SDS011;48772;55.586;37.730;2023-04-24T01:55:17;28.05;;;10.30;;
62711;SDS011;48772;55.586;37.730;2023-04-24T01:57:44;25.67;;;11.05;;
62711;SDS011;48772;55.586;37.730;2023-04-24T02:00:10;24.17;;;10.02;;
62711;SDS011;48772;55.586;37.730;2023-04-24T02:02:40;20.35;;;9.93;;
62711;SDS011;48772;55.586;37.730;2023-04-24T02:05:07;18.45;;;9.50;;
62711;SDS011;48772;55.586;37.730;2023-04-24T02:07:36;18.98;;;10.30;;
62711;SDS011;48772;55.586;37.730;2023-04-24T02:10:03;24.00;;;10.23;;
62711;SDS011;48772;55.586;37.730;2023-04-24T02:12:31;16.35;;;9.25;;
62711;SDS011;48772;55.586;37.730;2023-04-24T02:14:59;18.42;;;9.85;;
62711;SDS011;48772;55.586;37.730;2023-04-24T02:17:25;18.17;;;9.95;;
62711;SDS011;48772;55.586;37.730;2023-04-24T02:19:52;22.25;;;9.75;;
62711;SDS011;48772;55.586;37.730;2023-04-24T02:22:17;20.65;;;10.50;;
62711;SDS011;48772;55.586;37.730;2023-04-24T02:24:44;19.27;;;9.65;;
62711;SDS011;48772;55.586;37.730;2023-04-24T02:27:10;19.13;;;10.43;;
62711;SDS011;48772;55.586;37.730;2023-04-24T02:29:36;17.48;;;10.15;;
62711;SDS011;48772;55.586;37.730;2023-04-24T02:32:03;14.63;;;9.73;;
62711;SDS011;48772;55.586;37.730;2023-04-24T02:34:29;14.10;;;9.35;;
62711;SDS011;48772;55.586;37.730;2023-04-24T02:36:55;14.70;;;8.85;;
62711;SDS011;48772;55.586;37.730;2023-04-24T02:39:20;18.00;;;10.18;;
62711;SDS011;48772;55.586;37.730;2023-04-24T02:41:46;15.18;;;9.57;;
62711;SDS011;48772;55.586;37.730;2023-04-24T02:44:12;19.52;;;10.00;;
62711;SDS011;48772;55.586;37.730;2023-04-24T02:46:38;20.90;;;10.25;;
62711;SDS011;48772;55.586;37.730;2023-04-24T02:49:06;21.40;;;11.05;;
62711;SDS011;48772;55.586;37.730;2023-04-24T02:51:32;22.08;;;11.38;;
62711;SDS011;48772;55.586;37.730;2023-04-24T02:53:58;15.48;;;10.25;;
62711;SDS011;48772;55.586;37.730;2023-04-24T02:56:24;14.23;;;9.82;;
62711;SDS011;48772;55.586;37.730;2023-04-24T02:58:50;17.70;;;10.52;;
62711;SDS011;48772;55.586;37.730;2023-04-24T03:01:16;17.42;;;10.30;;
62711;SDS011;48772;55.586;37.730;2023-04-24T03:03:43;22.67;;;11.05;;
62711;SDS011;48772;55.586;37.730;2023-04-24T03:06:09;17.80;;;10.70;;
62711;SDS011;48772;55.586;37.730;2023-04-24T03:08:36;19.00;;;10.27;;
62711;SDS011;48772;55.586;37.730;2023-04-24T03:11:02;24.27;;;12.25;;
62711;SDS011;48772;55.586;37.730;2023-04-24T03:13:27;18.85;;;11.18;;
62711;SDS011;48772;55.586;37.730;2023-04-24T03:15:53;19.23;;;11.77;;
62711;SDS011;48772;55.586;37.730;2023-04-24T03:18:20;17.85;;;11.10;;
62711;SDS011;48772;55.586;37.730;2023-04-24T03:20:47;18.38;;;11.55;;
62711;SDS011;48772;55.586;37.730;2023-04-24T03:23:13;20.45;;;11.90;;
62711;SDS011;48772;55.586;37.730;2023-04-24T03:25:39;21.00;;;11.52;;
62711;SDS011;48772;55.586;37.730;2023-04-24T03:28:08;18.27;;;11.38;;
62711;SDS011;48772;55.586;37.730;2023-04-24T03:30:39;22.23;;;11.13;;
62711;SDS011;48772;55.586;37.730;2023-04-24T03:33:06;18.17;;;11.68;;
62711;SDS011;48772;55.586;37.730;2023-04-24T03:35:36;20.67;;;11.30;;
62711;SDS011;48772;55.586;37.730;2023-04-24T03:38:07;22.27;;;11.10;;
62711;SDS011;48772;55.586;37.730;2023-04-24T03:40:41;18.02;;;10.95;;
62711;SDS011;48772;55.586;37.730;2023-04-24T03:43:27;18.15;;;10.68;;
62711;SDS011;48772;55.586;37.730;2023-04-24T03:45:55;19.58;;;11.93;;
62711;SDS011;48772;55.586;37.730;2023-04-24T03:48:21;20.55;;;11.05;;
62711;SDS011;48772;55.586;37.730;2023-04-24T03:50:47;18.98;;;10.60;;
62711;SDS011;48772;55.586;37.730;2023-04-24T03:53:13;16.35;;;10.98;;
62711;SDS011;48772;55.586;37.730;2023-04-24T03:55:40;16.33;;;10.02;;
62711;SDS011;48772;55.586;37.730;2023-04-24T03:58:06;16.23;;;10.40;;
62711;SDS011;48772;55.586;37.730;2023-04-24T04:00:32;22.42;;;11.43;;
62711;SDS011;48772;55.586;37.730;2023-04-24T04:03:35;17.05;;;10.80;;
62711;SDS011;48772;55.586;37.730;2023-04-24T04:06:01;23.23;;;10.75;;
62711;SDS011;48772;55.586;37.730;2023-04-24T04:08:27;19.67;;;10.95;;
62711;SDS011;48772;55.586;37.730;2023-04-24T04:10:52;25.17;;;11.30;;
62711;SDS011;48772;55.586;37.730;2023-04-24T04:13:18;21.15;;;10.90;;
62711;SDS011;48772;55.586;37.730;2023-04-24T04:15:44;24.65;;;11.05;;
62711;SDS011;48772;55.586;37.730;2023-04-24T04:18:11;18.40;;;12.10;;
62711;SDS011;48772;55.586;37.730;2023-04-24T04:20:37;18.13;;;9.60;;
62711;SDS011;48772;55.586;37.730;2023-04-24T04:23:03;22.70;;;11.18;;
62711;SDS011;48772;55.586;37.730;2023-04-24T04:25:40;23.25;;;10.55;;
62711;SDS011;48772;55.586;37.730;2023-04-24T04:28:05;22.25;;;11.18;;
62711;SDS011;48772;55.586;37.730;2023-04-24T04:30:31;27.85;;;10.82;;
62711;SDS011;48772;55.586;37.730;2023-04-24T04:33:01;22.15;;;10.63;;
62711;SDS011;48772;55.586;37.730;2023-04-24T04:35:28;15.48;;;9.98;;
62711;SDS011;48772;55.586;37.730;2023-04-24T04:37:54;17.67;;;10.65;;
62711;SDS011;48772;55.586;37.730;2023-04-24T04:40:50;27.45;;;9.20;;
62711;SDS011;48772;55.586;37.730;2023-04-24T04:43:17;17.40;;;9.05;;
62711;SDS011;48772;55.586;37.730;2023-04-24T04:45:50;17.67;;;9.07;;
62711;SDS011;48772;55.586;37.730;2023-04-24T04:48:43;15.18;;;8.82;;
62711;SDS011;48772;55.586;37.730;2023-04-24T04:51:09;15.13;;;8.70;;
62711;SDS011;48772;55.586;37.730;2023-04-24T04:53:35;13.23;;;8.82;;
62711;SDS011;48772;55.586;37.730;2023-04-24T04:56:01;15.05;;;9.38;;
62711;SDS011;48772;55.586;37.730;2023-04-24T04:58:40;18.08;;;8.02;;
62711;SDS011;48772;55.586;37.730;2023-04-24T05:01:12;16.13;;;8.07;;
62711;SDS011;48772;55.586;37.730;2023-04-24T05:03:42;15.52;;;8.20;;
62711;SDS011;48772;55.586;37.730;2023-04-24T05:06:13;16.55;;;8.27;;
62711;SDS011;48772;55.586;37.730;2023-04-24T05:08:39;12.70;;;8.13;;
62711;SDS011;48772;55.586;37.730;2023-04-24T05:11:09;13.25;;;8.27;;
62711;SDS011;48772;55.586;37.730;2023-04-24T05:13:36;15.48;;;8.38;;
62711;SDS011;48772;55.586;37.730;2023-04-24T05:16:06;19.30;;;8.35;;
62711;SDS011;48772;55.586;37.730;2023-04-24T05:18:32;21.65;;;8.55;;
62711;SDS011;48772;55.586;37.730;2023-04-24T05:20:59;19.38;;;8.43;;
62711;SDS011;48772;55.586;37.730;2023-04-24T05:23:25;14.80;;;8.20;;
62711;SDS011;48772;55.586;37.730;2023-04-24T05:25:53;16.98;;;8.52;;
62711;SDS011;48772;55.586;37.730;2023-04-24T05:28:29;13.40;;;8.23;;
62711;SDS011;48772;55.586;37.730;2023-04-24T05:31:05;19.88;;;8.63;;
62711;SDS011;48772;55.586;37.730;2023-04-24T05:33:32;15.82;;;8.70;;
62711;SDS011;48772;55.586;37.730;2023-04-24T05:35:57;20.13;;;8.80;;
62711;SDS011;48772;55.586;37.730;2023-04-24T05:38:27;20.42;;;9.90;;
62711;SDS011;48772;55.586;37.730;2023-04-24T05:40:53;17.23;;;8.95;;
62711;SDS011;48772;55.586;37.730;2023-04-24T05:43:18;14.00;;;8.82;;
62711;SDS011;48772;55.586;37.730;2023-04-24T05:45:45;15.50;;;8.32;;
62711;SDS011;48772;55.586;37.730;2023-04-24T05:48:11;17.00;;;8.35;;
62711;SDS011;48772;55.586;37.730;2023-04-24T05:50:55;20.75;;;8.45;;
62711;SDS011;48772;55.586;37.730;2023-04-24T05:53:22;16.40;;;8.68;;
62711;SDS011;48772;55.586;37.730;2023-04-24T05:55:48;16.60;;;7.85;;
62711;SDS011;48772;55.586;37.730;2023-04-24T05:58:15;21.55;;;8.73;;
62711;SDS011;48772;55.586;37.730;2023-04-24T06:00:41;13.27;;;8.40;;
62711;SDS011;48772;55.586;37.730;2023-04-24T06:03:12;15.88;;;7.70;;
62711;SDS011;48772;55.586;37.730;2023-04-24T06:05:38;22.58;;;8.57;;
62711;SDS011;48772;55.586;37.730;2023-04-24T06:08:04;19.02;;;7.72;;
62711;SDS011;48772;55.586;37.730;2023-04-24T06:10:34;14.15;;;7.55;;
62711;SDS011;48772;55.586;37.730;2023-04-24T06:13:00;14.18;;;6.97;;
62711;SDS011;48772;55.586;37.730;2023-04-24T06:15:28;16.65;;;7.47;;
62711;SDS011;48772;55.586;37.730;2023-04-24T06:17:58;13.13;;;7.32;;
62711;SDS011;48772;55.586;37.730;2023-04-24T06:20:25;14.35;;;7.35;;
62711;SDS011;48772;55.586;37.730;2023-04-24T06:22:52;11.32;;;5.93;;
62711;SDS011;48772;55.586;37.730;2023-04-24T06:25:18;14.18;;;6.75;;
62711;SDS011;48772;55.586;37.730;2023-04-24T06:27:44;21.73;;;6.95;;
62711;SDS011;48772;55.586;37.730;2023-04-24T06:30:11;9.38;;;6.57;;
62711;SDS011;48772;55.586;37.730;2023-04-24T06:32:38;8.43;;;5.50;;
62711;SDS011;48772;55.586;37.730;2023-04-24T06:37:51;10.52;;;5.82;;
62711;SDS011;48772;55.586;37.730;2023-04-24T06:40:16;12.10;;;5.85;;
62711;SDS011;48772;55.586;37.730;2023-04-24T06:42:45;12.07;;;6.07;;
62711;SDS011;48772;55.586;37.730;2023-04-24T06:45:11;17.48;;;6.70;;
62711;SDS011;48772;55.586;37.730;2023-04-24T06:50:22;15.57;;;5.50;;
62711;SDS011;48772;55.586;37.730;2023-04-24T06:52:48;14.75;;;5.70;;
62711;SDS011;48772;55.586;37.730;2023-04-24T06:55:13;12.43;;;5.63;;
62711;SDS011;48772;55.586;37.730;2023-04-24T06:57:42;10.00;;;4.97;;
62711;SDS011;48772;55.586;37.730;2023-04-24T07:00:08;17.08;;;4.95;;
62711;SDS011;48772;55.586;37.730;2023-04-24T07:02:35;13.40;;;5.05;;
62711;SDS011;48772;55.586;37.730;2023-04-24T07:05:00;7.63;;;5.05;;
62711;SDS011;48772;55.586;37.730;2023-04-24T07:07:30;17.10;;;5.30;;
62711;SDS011;48772;55.586;37.730;2023-04-24T07:09:56;7.72;;;4.57;;
62711;SDS011;48772;55.586;37.730;2023-04-24T07:12:22;14.60;;;4.07;;
62711;SDS011;48772;55.586;37.730;2023-04-24T07:14:50;16.65;;;4.90;;
62711;SDS011;48772;55.586;37.730;2023-04-24T07:17:16;12.95;;;4.38;;
62711;SDS011;48772;55.586;37.730;2023-04-24T07:19:41;11.65;;;4.00;;
62711;SDS011;48772;55.586;37.730;2023-04-24T07:22:07;10.73;;;4.40;;
62711;SDS011;48772;55.586;37.730;2023-04-24T07:24:33;7.38;;;4.10;;
62711;SDS011;48772;55.586;37.730;2023-04-24T07:26:59;7.20;;;3.60;;
62711;SDS011;48772;55.586;37.730;2023-04-24T07:29:26;6.50;;;3.70;;
62711;SDS011;48772;55.586;37.730;2023-04-24T07:31:52;4.78;;;3.38;;
62711;SDS011;48772;55.586;37.730;2023-04-24T07:34:19;7.82;;;3.90;;
62711;SDS011;48772;55.586;37.730;2023-04-24T07:36:45;7.97;;;3.78;;
62711;SDS011;48772;55.586;37.730;2023-04-24T07:39:11;9.02;;;3.70;;
62711;SDS011;48772;55.586;37.730;2023-04-24T07:41:37;7.57;;;3.78;;
62711;SDS011;48772;55.586;37.730;2023-04-24T07:44:03;5.93;;;3.75;;
62711;SDS011;48772;55.586;37.730;2023-04-24T07:46:29;7.00;;;4.38;;
62711;SDS011;48772;55.586;37.730;2023-04-24T07:48:55;9.02;;;3.95;;
62711;SDS011;48772;55.586;37.730;2023-04-24T07:51:21;8.15;;;4.45;;
62711;SDS011;48772;55.586;37.730;2023-04-24T07:53:47;10.00;;;4.10;;
62711;SDS011;48772;55.586;37.730;2023-04-24T07:56:13;8.48;;;4.07;;
62711;SDS011;48772;55.586;37.730;2023-04-24T07:58:39;7.78;;;4.07;;
62711;SDS011;48772;55.586;37.730;2023-04-24T08:01:05;5.97;;;3.88;;
62711;SDS011;48772;55.586;37.730;2023-04-24T08:03:31;7.38;;;4.25;;
62711;SDS011;48772;55.586;37.730;2023-04-24T08:05:56;15.35;;;3.90;;
62711;SDS011;48772;55.586;37.730;2023-04-24T08:08:22;9.95;;;4.28;;
62711;SDS011;48772;55.586;37.730;2023-04-24T08:10:49;4.45;;;4.00;;
62711;SDS011;48772;55.586;37.730;2023-04-24T08:13:15;8.55;;;4.47;;
62711;SDS011;48772;55.586;37.730;2023-04-24T08:15:40;5.30;;;3.58;;
62711;SDS011;48772;55.586;37.730;2023-04-24T08:18:07;10.20;;;4.22;;
62711;SDS011;48772;55.586;37.730;2023-04-24T08:20:33;18.98;;;8.98;;
62711;SDS011;48772;55.586;37.730;2023-04-24T08:22:58;4.90;;;4.20;;
62711;SDS011;48772;55.586;37.730;2023-04-24T08:25:24;11.10;;;4.63;;
62711;SDS011;48772;55.586;37.730;2023-04-24T08:27:50;6.85;;;4.05;;
62711;SDS011;48772;55.586;37.730;2023-04-24T08:30:16;7.18;;;4.50;;
62711;SDS011;48772;55.586;37.730;2023-04-24T08:32:43;8.75;;;4.13;;
62711;SDS011;48772;55.586;37.730;2023-04-24T08:35:08;5.40;;;3.78;;
62711;SDS011;48772;55.586;37.730;2023-04-24T08:37:35;9.15;;;4.70;;
62711;SDS011;48772;55.586;37.730;2023-04-24T08:40:01;11.45;;;4.40;;
62711;SDS011;48772;55.586;37.730;2023-04-24T08:45:21;6.88;;;4.15;;
62711;SDS011;48772;55.586;37.730;2023-04-24T08:47:47;11.38;;;4.35;;
62711;SDS011;48772;55.586;37.730;2023-04-24T08:50:14;8.65;;;4.80;;
62711;SDS011;48772;55.586;37.730;2023-04-24T08:52:41;6.35;;;4.00;;
62711;SDS011;48772;55.586;37.730;2023-04-24T08:55:08;10.20;;;4.15;;
62711;SDS011;48772;55.586;37.730;2023-04-24T09:00:20;9.15;;;4.50;;
62711;SDS011;48772;55.586;37.730;2023-04-24T09:02:46;8.57;;;4.43;;
62711;SDS011;48772;55.586;37.730;2023-04-24T09:05:16;6.43;;;4.25;;
62711;SDS011;48772;55.586;37.730;2023-04-24T09:07:53;9.30;;;4.45;;
62711;SDS011;48772;55.586;37.730;2023-04-24T09:10:21;5.72;;;4.25;;
62711;SDS011;48772;55.586;37.730;2023-04-24T09:12:49;11.75;;;4.43;;
62711;SDS011;48772;55.586;37.730;2023-04-24T09:15:16;4.53;;;4.10;;
62711;SDS011;48772;55.586;37.730;2023-04-24T09:17:44;5.43;;;3.92;;
62711;SDS011;48772;55.586;37.730;2023-04-24T09:20:10;5.63;;;4.22;;
62711;SDS011;48772;55.586;37.730;2023-04-24T09:22:36;6.13;;;3.72;;
62711;SDS011;48772;55.586;37.730;2023-04-24T09:25:06;9.35;;;4.45;;
62711;SDS011;48772;55.586;37.730;2023-04-24T09:27:34;7.70;;;4.20;;
62711;SDS011;48772;55.586;37.730;2023-04-24T09:30:00;8.00;;;4.32;;
62711;SDS011;48772;55.586;37.730;2023-04-24T09:32:31;9.98;;;4.57;;
62711;SDS011;48772;55.586;37.730;2023-04-24T09:35:14;4.45;;;2.55;;
62711;SDS011;48772;55.586;37.730;2023-04-24T09:37:41;8.38;;;4.10;;
62711;SDS011;48772;55.586;37.730;2023-04-24T09:40:21;8.23;;;4.28;;
62711;SDS011;48772;55.586;37.730;2023-04-24T09:42:52;5.35;;;3.78;;
62711;SDS011;48772;55.586;37.730;2023-04-24T09:45:19;9.00;;;3.83;;
62711;SDS011;48772;55.586;37.730;2023-04-24T09:47:46;8.38;;;3.88;;
62711;SDS011;48772;55.586;37.730;2023-04-24T09:50:17;10.48;;;3.72;;
62711;SDS011;48772;55.586;37.730;2023-04-24T09:52:46;5.57;;;3.83;;
62711;SDS011;48772;55.586;37.730;2023-04-24T09:55:21;12.35;;;4.40;;
62711;SDS011;48772;55.586;37.730;2023-04-24T09:57:48;9.07;;;4.22;;
62711;SDS011;48772;55.586;37.730;2023-04-24T10:00:28;5.72;;;3.60;;
62711;SDS011;48772;55.586;37.730;2023-04-24T10:05:29;9.32;;;4.20;;
62711;SDS011;48772;55.586;37.730;2023-04-24T10:08:01;6.20;;;3.90;;
62711;SDS011;48772;55.586;37.730;2023-04-24T10:10:28;5.28;;;3.75;;
62711;SDS011;48772;55.586;37.730;2023-04-24T10:12:55;4.55;;;3.72;;
62711;SDS011;48772;55.586;37.730;2023-04-24T10:15:21;8.48;;;4.32;;
62711;SDS011;48772;55.586;37.730;2023-04-24T10:17:48;6.55;;;4.35;;
62711;SDS011;48772;55.586;37.730;2023-04-24T10:20:18;6.10;;;3.75;;
62711;SDS011;48772;55.586;37.730;2023-04-24T10:22:49;7.75;;;3.80;;
62711;SDS011;48772;55.586;37.730;2023-04-24T10:25:18;9.70;;;3.92;;
62711;SDS011;48772;55.586;37.730;2023-04-24T10:27:46;8.15;;;3.85;;
62711;SDS011;48772;55.586;37.730;2023-04-24T10:30:12;5.75;;;3.90;;
62711;SDS011;48772;55.586;37.730;2023-04-24T10:32:39;8.05;;;4.05;;
62711;SDS011;48772;55.586;37.730;2023-04-24T10:35:08;5.32;;;3.55;;
62711;SDS011;48772;55.586;37.730;2023-04-24T10:37:45;6.30;;;3.50;;
62711;SDS011;48772;55.586;37.730;2023-04-24T10:40:25;6.07;;;3.63;;
62711;SDS011;48772;55.586;37.730;2023-04-24T10:42:53;6.70;;;3.60;;
62711;SDS011;48772;55.586;37.730;2023-04-24T10:45:19;5.60;;;3.38;;
62711;SDS011;48772;55.586;37.730;2023-04-24T10:47:51;4.82;;;3.47;;
62711;SDS011;48772;55.586;37.730;2023-04-24T10:50:18;9.57;;;3.47;;
62711;SDS011;48772;55.586;37.730;2023-04-24T10:52:45;5.80;;;3.90;;
62711;SDS011;48772;55.586;37.730;2023-04-24T10:55:12;6.90;;;3.55;;
62711;SDS011;48772;55.586;37.730;2023-04-24T10:58:03;5.45;;;3.70;;
62711;SDS011;48772;55.586;37.730;2023-04-24T11:00:29;8.77;;;3.20;;
62711;SDS011;48772;55.586;37.730;2023-04-24T11:02:55;7.50;;;3.13;;
62711;SDS011;48772;55.586;37.730;2023-04-24T11:05:22;12.35;;;3.53;;
62711;SDS011;48772;55.586;37.730;2023-04-24T11:08:11;10.00;;;3.33;;
62711;SDS011;48772;55.586;37.730;2023-04-24T11:10:44;10.80;;;3.47;;
62711;SDS011;48772;55.586;37.730;2023-04-24T11:13:10;4.00;;;3.30;;
62711;SDS011;48772;55.586;37.730;2023-04-24T11:15:41;4.32;;;3.30;;
62711;SDS011;48772;55.586;37.730;2023-04-24T11:18:17;4.75;;;3.50;;
62711;SDS011;48772;55.586;37.730;2023-04-24T11:20:43;3.70;;;3.03;;
62711;SDS011;48772;55.586;37.730;2023-04-24T11:23:11;5.75;;;3.63;;
62711;SDS011;48772;55.586;37.730;2023-04-24T11:25:38;6.22;;;3.40;;
62711;SDS011;48772;55.586;37.730;2023-04-24T11:28:04;7.97;;;3.42;;
62711;SDS011;48772;55.586;37.730;2023-04-24T11:30:31;4.70;;;2.90;;
62711;SDS011;48772;55.586;37.730;2023-04-24T11:33:02;9.57;;;3.10;;
62711;SDS011;48772;55.586;37.730;2023-04-24T11:35:29;8.75;;;3.17;;
62711;SDS011;48772;55.586;37.730;2023-04-24T11:37:56;5.97;;;3.00;;
62711;SDS011;48772;55.586;37.730;2023-04-24T11:40:22;3.83;;;3.05;;
62711;SDS011;48772;55.586;37.730;2023-04-24T11:42:49;8.30;;;3.38;;
62711;SDS011;48772;55.586;37.730;2023-04-24T11:45:18;5.40;;;3.20;;
62711;SDS011;48772;55.586;37.730;2023-04-24T11:47:47;3.38;;;3.00;;
62711;SDS011;48772;55.586;37.730;2023-04-24T11:50:17;8.45;;;3.30;;
62711;SDS011;48772;55.586;37.730;2023-04-24T11:52:45;4.47;;;2.88;;
62711;SDS011;48772;55.586;37.730;2023-04-24T11:57:51;4.97;;;3.40;;
62711;SDS011;48772;55.586;37.730;2023-04-24T12:00:26;5.53;;;3.20;;
62711;SDS011;48772;55.586;37.730;2023-04-24T12:03:06;4.75;;;3.03;;
62711;SDS011;48772;55.586;37.730;2023-04-24T12:05:33;6.18;;;2.80;;
62711;SDS011;48772;55.586;37.730;2023-04-24T12:08:00;5.72;;;2.88;;
62711;SDS011;48772;55.586;37.730;2023-04-24T12:10:27;6.95;;;2.95;;
62711;SDS011;48772;55.586;37.730;2023-04-24T12:12:56;3.53;;;2.85;;
62711;SDS011;48772;55.586;37.730;2023-04-24T12:15:22;3.47;;;2.83;;
62711;SDS011;48772;55.586;37.730;2023-04-24T12:17:50;4.63;;;2.90;;
62711;SDS011;48772;55.586;37.730;2023-04-24T12:20:17;5.00;;;2.88;;
62711;SDS011;48772;55.586;37.730;2023-04-24T12:22:55;3.13;;;2.78;;
62711;SDS011;48772;55.586;37.730;2023-04-24T12:25:23;5.70;;;3.25;;
62711;SDS011;48772;55.586;37.730;2023-04-24T12:30:29;3.35;;;2.70;;
62711;SDS011;48772;55.586;37.730;2023-04-24T12:32:57;7.03;;;2.95;;
62711;SDS011;48772;55.586;37.730;2023-04-24T12:35:24;8.82;;;3.15;;
62711;SDS011;48772;55.586;37.730;2023-04-24T12:37:53;3.80;;;2.17;;
62711;SDS011;48772;55.586;37.730;2023-04-24T12:40:20;4.03;;;3.17;;
62711;SDS011;48772;55.586;37.730;2023-04-24T12:42:47;4.32;;;2.72;;
62711;SDS011;48772;55.586;37.730;2023-04-24T12:45:15;4.88;;;2.60;;
62711;SDS011;48772;55.586;37.730;2023-04-24T12:47:42;4.40;;;3.03;;
62711;SDS011;48772;55.586;37.730;2023-04-24T12:50:12;5.07;;;2.72;;
62711;SDS011;48772;55.586;37.730;2023-04-24T12:52:40;4.07;;;2.70;;
62711;SDS011;48772;55.586;37.730;2023-04-24T12:55:07;5.38;;;2.50;;
62711;SDS011;48772;55.586;37.730;2023-04-24T12:57:35;7.25;;;2.95;;
62711;SDS011;48772;55.586;37.730;2023-04-24T13:00:02;8.60;;;3.03;;
62711;SDS011;48772;55.586;37.730;2023-04-24T13:02:33;5.78;;;2.78;;
62711;SDS011;48772;55.586;37.730;2023-04-24T13:05:00;4.47;;;2.83;;
62711;SDS011;48772;55.586;37.730;2023-04-24T13:07:31;4.07;;;2.83;;
62711;SDS011;48772;55.586;37.730;2023-04-24T13:09:57;7.22;;;3.10;;
62711;SDS011;48772;55.586;37.730;2023-04-24T13:12:23;7.40;;;2.97;;
62711;SDS011;48772;55.586;37.730;2023-04-24T13:14:49;6.53;;;3.10;;
62711;SDS011;48772;55.586;37.730;2023-04-24T13:17:15;4.18;;;2.85;;
62711;SDS011;48772;55.586;37.730;2023-04-24T13:19:42;3.60;;;2.60;;
62711;SDS011;48772;55.586;37.730;2023-04-24T13:22:10;3.42;;;2.33;;
62711;SDS011;48772;55.586;37.730;2023-04-24T13:24:36;7.25;;;2.80;;
62711;SDS011;48772;55.586;37.730;2023-04-24T13:27:05;4.53;;;2.67;;
62711;SDS011;48772;55.586;37.730;2023-04-24T13:29:30;3.83;;;3.53;;
62711;SDS011;48772;55.586;37.730;2023-04-24T13:31:56;7.22;;;2.78;;
62711;SDS011;48772;55.586;37.730;2023-04-24T13:34:23;4.28;;;3.13;;
62711;SDS011;48772;55.586;37.730;2023-04-24T13:36:50;5.10;;;2.50;;
62711;SDS011;48772;55.586;37.730;2023-04-24T13:39:16;3.63;;;2.65;;
62711;SDS011;48772;55.586;37.730;2023-04-24T13:41:42;3.63;;;2.50;;
62711;SDS011;48772;55.586;37.730;2023-04-24T13:44:08;5.60;;;2.53;;
62711;SDS011;48772;55.586;37.730;2023-04-24T13:46:34;4.07;;;2.63;;
62711;SDS011;48772;55.586;37.730;2023-04-24T13:49:01;5.20;;;2.70;;
62711;SDS011;48772;55.586;37.730;2023-04-24T13:51:29;2.63;;;2.40;;
62711;SDS011;48772;55.586;37.730;2023-04-24T13:53:55;5.55;;;2.78;;
62711;SDS011;48772;55.586;37.730;2023-04-24T13:56:22;4.43;;;2.78;;
62711;SDS011;48772;55.586;37.730;2023-04-24T13:58:49;6.22;;;3.20;;
62711;SDS011;48772;55.586;37.730;2023-04-24T14:01:15;5.78;;;3.08;;
62711;SDS011;48772;55.586;37.730;2023-04-24T14:03:41;6.97;;;2.95;;
62711;SDS011;48772;55.586;37.730;2023-04-24T14:06:08;4.93;;;3.40;;
62711;SDS011;48772;55.586;37.730;2023-04-24T14:08:34;4.20;;;2.95;;
62711;SDS011;48772;55.586;37.730;2023-04-24T14:11:00;4.75;;;2.70;;
62711;SDS011;48772;55.586;37.730;2023-04-24T14:13:26;3.75;;;2.80;;
62711;SDS011;48772;55.586;37.730;2023-04-24T14:15:52;4.35;;;2.95;;
62711;SDS011;48772;55.586;37.730;2023-04-24T14:18:18;5.43;;;3.10;;
62711;SDS011;48772;55.586;37.730;2023-04-24T14:20:44;4.75;;;3.40;;
62711;SDS011;48772;55.586;37.730;2023-04-24T14:23:10;3.55;;;2.50;;
62711;SDS011;48772;55.586;37.730;2023-04-24T14:25:36;7.75;;;3.05;;
62711;SDS011;48772;55.586;37.730;2023-04-24T14:28:02;5.57;;;3.00;;
62711;SDS011;48772;55.586;37.730;2023-04-24T14:30:28;2.90;;;2.45;;
62711;SDS011;48772;55.586;37.730;2023-04-24T14:32:54;7.22;;;2.90;;
62711;SDS011;48772;55.586;37.730;2023-04-24T14:35:19;2.90;;;2.55;;
62711;SDS011;48772;55.586;37.730;2023-04-24T14:37:45;5.65;;;2.60;;
62711;SDS011;48772;55.586;37.730;2023-04-24T14:40:11;4.80;;;2.40;;
62711;SDS011;48772;55.586;37.730;2023-04-24T14:42:37;5.03;;;2.55;;
62711;SDS011;48772;55.586;37.730;2023-04-24T14:45:03;8.73;;;2.72;;
62711;SDS011;48772;55.586;37.730;2023-04-24T14:47:30;6.75;;;2.80;;